Time;durP1;ratioP1;P1;durP2;ratioP2;P2;SDS_P1;SDS_P2;PMS_P1;PMS_P2;Temp;Humidity;BMP_temperature;BMP_pressure;BME280_temperature;BME280_humidity;BME280_pressure;Samples;Min_cycle;Max_cycle;Signal;HPM_P1;HPM_P2
2023/03/26 00:00:54;;;;;;;1.30;0.77;;;;;;;;;;5002716;28;87174;-49
2023/03/26 00:03:23;;;;;;;1.03;0.70;;;;;;;;;;5002952;28;88990;-49
2023/03/26 00:05:51;;;;;;;1.67;1.07;;;;;;;;;;5003339;28;89982;-49
2023/03/26 00:08:20;;;;;;;6.23;1.23;;;;;;;;;;5001149;28;87505;-49
2023/03/26 00:10:50;;;;;;;1.60;1.00;;;;;;;;;;4997500;28;87306;-49
2023/03/26 00:13:18;;;;;;;0.90;0.80;;;;;;;;;;5002993;28;89248;-49
2023/03/26 00:15:47;;;;;;;1.60;0.93;;;;;;;;;;5003362;28;87946;-49
2023/03/26 00:18:15;;;;;;;1.60;0.90;;;;;;;;;;5002760;28;87700;-49
2023/03/26 00:20:44;;;;;;;1.23;0.90;;;;;;;;;;5003333;28;86824;-49
2023/03/26 00:23:12;;;;;;;5.33;1.10;;;;;;;;;;5001672;28;89195;-49
2023/03/26 00:25:42;;;;;;;2.10;0.97;;;;;;;;;;5003234;28;87646;-49
2023/03/26 00:28:12;;;;;;;1.83;0.80;;;;;;;;;;5002774;28;88015;-49
2023/03/26 00:30:40;;;;;;;1.50;1.10;;;;;;;;;;5002992;28;87125;-49
2023/03/26 00:33:10;;;;;;;2.30;1.13;;;;;;;;;;5002521;28;88120;-49
2023/03/26 00:35:39;;;;;;;1.93;1.20;;;;;;;;;;5001847;28;86981;-48
2023/03/26 00:38:07;;;;;;;2.37;1.10;;;;;;;;;;5003275;28;86865;-49
2023/03/26 00:40:36;;;;;;;4.53;1.47;;;;;;;;;;5001814;28;87010;-49
2023/03/26 00:43:18;;;;;;;2.00;1.17;;;;;;;;;;5002942;28;88019;-49
2023/03/26 00:45:48;;;;;;;4.43;1.20;;;;;;;;;;5002396;28;88098;-49
2023/03/26 00:48:16;;;;;;;2.67;1.63;;;;;;;;;;5002242;28;86997;-49
2023/03/26 00:50:45;;;;;;;3.70;1.90;;;;;;;;;;5002637;28;87002;-49
2023/03/26 00:53:13;;;;;;;2.50;1.13;;;;;;;;;;5001238;28;89224;-49
2023/03/26 00:55:42;;;;;;;4.00;1.67;;;;;;;;;;5002040;28;89698;-49
2023/03/26 00:58:11;;;;;;;6.10;1.43;;;;;;;;;;5002244;28;86935;-49
2023/03/26 01:00:42;;;;;;;2.43;0.80;;;;;;;;;;5001272;28;87473;-49
2023/03/26 01:03:17;;;;;;;6.83;1.30;;;;;;;;;;5002396;28;89328;-49
2023/03/26 01:06:01;;;;;;;6.63;1.10;;;;;;;;;;5003744;28;88890;-49
2023/03/26 01:08:30;;;;;;;2.63;0.77;;;;;;;;;;5002680;28;86978;-49
2023/03/26 01:11:04;;;;;;;1.43;1.03;;;;;;;;;;5002976;28;87666;-49
2023/03/26 01:13:33;;;;;;;2.10;1.37;;;;;;;;;;5002470;28;87113;-49
2023/03/26 01:16:01;;;;;;;3.87;1.00;;;;;;;;;;5002699;28;87123;-49
2023/03/26 01:18:39;;;;;;;8.27;1.73;;;;;;;;;;5001276;28;87982;-49
2023/03/26 01:21:08;;;;;;;3.03;1.00;;;;;;;;;;5002516;28;86986;-49
2023/03/26 01:23:38;;;;;;;4.83;1.23;;;;;;;;;;5002220;28;89174;-49
2023/03/26 01:26:09;;;;;;;1.77;1.07;;;;;;;;;;4982540;28;86972;-49
2023/03/26 01:28:40;;;;;;;2.90;1.30;;;;;;;;;;4982326;28;86916;-49
2023/03/26 01:31:10;;;;;;;4.70;1.73;;;;;;;;;;4982421;28;86976;-49
2023/03/26 01:33:39;;;;;;;6.10;1.30;;;;;;;;;;4981681;28;87942;-49
2023/03/26 01:36:09;;;;;;;3.53;1.43;;;;;;;;;;4981791;28;88860;-49
2023/03/26 01:38:38;;;;;;;1.63;1.00;;;;;;;;;;4982317;28;87024;-50
2023/03/26 01:41:09;;;;;;;3.47;1.43;;;;;;;;;;4981959;28;87041;-49
2023/03/26 01:43:39;;;;;;;4.97;1.60;;;;;;;;;;4981704;28;89288;-49
2023/03/26 01:46:08;;;;;;;3.10;1.30;;;;;;;;;;4981431;28;88704;-49
2023/03/26 01:48:37;;;;;;;4.17;1.47;;;;;;;;;;4981881;28;86813;-49
2023/03/26 01:51:07;;;;;;;3.00;1.57;;;;;;;;;;4979416;28;86958;-49
2023/03/26 01:53:36;;;;;;;2.13;1.63;;;;;;;;;;4981134;28;88228;-49
2023/03/26 01:56:06;;;;;;;6.13;1.53;;;;;;;;;;4981228;28;88999;-50
2023/03/26 01:58:37;;;;;;;4.83;1.30;;;;;;;;;;4982832;28;87089;-49
2023/03/26 02:01:07;;;;;;;2.10;1.47;;;;;;;;;;4982558;28;86316;-49
2023/03/26 02:03:36;;;;;;;2.40;1.50;;;;;;;;;;4981555;28;88055;-49
2023/03/26 02:06:06;;;;;;;1.77;1.00;;;;;;;;;;4981411;28;88283;-49
2023/03/26 02:08:35;;;;;;;3.50;1.50;;;;;;;;;;4981746;28;87983;-49
2023/03/26 02:11:04;;;;;;;2.90;1.67;;;;;;;;;;4982039;28;86988;-49
2023/03/26 02:13:32;;;;;;;2.30;0.93;;;;;;;;;;4981643;28;88263;-49
2023/03/26 02:16:02;;;;;;;4.33;1.23;;;;;;;;;;4981506;28;88799;-49
2023/03/26 02:18:35;;;;;;;1.87;1.10;;;;;;;;;;4981369;28;87120;-49
2023/03/26 02:21:05;;;;;;;3.83;1.97;;;;;;;;;;4981740;28;87689;-49
2023/03/26 02:23:34;;;;;;;6.63;1.23;;;;;;;;;;4980967;28;88867;-49
2023/03/26 02:26:03;;;;;;;6.10;1.70;;;;;;;;;;4981615;28;87646;-49
2023/03/26 02:28:31;;;;;;;5.13;1.30;;;;;;;;;;4981684;28;86917;-49
2023/03/26 02:31:01;;;;;;;3.27;1.43;;;;;;;;;;4981803;28;86905;-49
2023/03/26 02:33:30;;;;;;;7.03;1.27;;;;;;;;;;4984144;28;89159;-49
2023/03/26 02:36:00;;;;;;;1.70;1.00;;;;;;;;;;5001296;28;88900;-49
2023/03/26 02:38:29;;;;;;;2.67;1.40;;;;;;;;;;5005019;28;87012;-49
2023/03/26 02:40:57;;;;;;;4.03;1.47;;;;;;;;;;5005290;28;87011;-49
2023/03/26 02:43:25;;;;;;;3.87;1.10;;;;;;;;;;5004402;28;89183;-50
2023/03/26 02:45:54;;;;;;;2.50;1.57;;;;;;;;;;5004457;28;88862;-50
2023/03/26 02:48:24;;;;;;;5.30;1.23;;;;;;;;;;5004538;28;87397;-50
2023/03/26 02:50:53;;;;;;;1.13;0.93;;;;;;;;;;5005537;28;86166;-49
2023/03/26 02:53:22;;;;;;;1.43;0.90;;;;;;;;;;5004752;28;89000;-49
2023/03/26 02:55:51;;;;;;;1.97;1.30;;;;;;;;;;5005044;28;87542;-49
2023/03/26 02:58:19;;;;;;;1.47;1.10;;;;;;;;;;5003015;28;87952;-49
2023/03/26 03:00:49;;;;;;;5.37;1.10;;;;;;;;;;5004920;28;87035;-49
2023/03/26 03:03:18;;;;;;;4.87;1.40;;;;;;;;;;5004469;28;87842;-49
2023/03/26 03:05:47;;;;;;;7.50;1.33;;;;;;;;;;5003792;28;88018;-50
2023/03/26 03:08:17;;;;;;;2.90;1.27;;;;;;;;;;5004375;28;86968;-50
2023/03/26 03:10:45;;;;;;;7.50;1.67;;;;;;;;;;5004532;28;87596;-49
2023/03/26 03:13:14;;;;;;;2.87;1.10;;;;;;;;;;5002392;28;89185;-49
2023/03/26 03:15:42;;;;;;;2.80;1.13;;;;;;;;;;5004815;28;87640;-49
2023/03/26 03:18:11;;;;;;;1.37;1.00;;;;;;;;;;5004139;28;86965;-49
2023/03/26 03:20:40;;;;;;;4.13;1.43;;;;;;;;;;5004406;28;86912;-49
2023/03/26 03:23:10;;;;;;;2.47;1.00;;;;;;;;;;5003502;28;89050;-49
2023/03/26 03:25:39;;;;;;;1.87;1.00;;;;;;;;;;5004487;28;88927;-49
2023/03/26 03:28:08;;;;;;;4.17;1.00;;;;;;;;;;5004208;28;87043;-49
2023/03/26 03:30:36;;;;;;;2.43;1.07;;;;;;;;;;5003508;28;87053;-49
2023/03/26 03:33:04;;;;;;;1.97;0.93;;;;;;;;;;5003885;28;89002;-49
2023/03/26 03:35:33;;;;;;;4.47;1.10;;;;;;;;;;5002812;28;88795;-49
2023/03/26 03:38:02;;;;;;;5.73;1.33;;;;;;;;;;5003493;28;86682;-49
2023/03/26 03:40:32;;;;;;;1.83;0.90;;;;;;;;;;5004462;28;86105;-49
2023/03/26 03:43:00;;;;;;;1.30;0.70;;;;;;;;;;5002695;28;89003;-49
2023/03/26 03:45:28;;;;;;;3.03;0.93;;;;;;;;;;5003494;28;88933;-55
2023/03/26 03:47:56;;;;;;;3.57;0.80;;;;;;;;;;5003403;28;87995;-49
2023/03/26 03:50:25;;;;;;;3.10;1.47;;;;;;;;;;5003709;28;87049;-49
2023/03/26 03:52:54;;;;;;;7.53;1.97;;;;;;;;;;5003131;28;88200;-49
2023/03/26 03:55:26;;;;;;;1.93;0.90;;;;;;;;;;5003890;28;88790;-49
2023/03/26 03:57:57;;;;;;;2.77;1.50;;;;;;;;;;5003557;28;87938;-49
2023/03/26 04:00:25;;;;;;;3.97;1.70;;;;;;;;;;5003668;28;86946;-49
2023/03/26 04:02:55;;;;;;;1.07;0.70;;;;;;;;;;5003605;28;89102;-50
2023/03/26 04:05:23;;;;;;;1.63;0.70;;;;;;;;;;5004221;28;88609;-49
2023/03/26 04:07:51;;;;;;;1.87;1.10;;;;;;;;;;5003420;28;86990;-49
2023/03/26 04:10:20;;;;;;;2.43;1.07;;;;;;;;;;5003429;28;87023;-49
2023/03/26 04:12:48;;;;;;;4.73;1.30;;;;;;;;;;5003308;28;89045;-49
2023/03/26 04:15:18;;;;;;;1.70;0.80;;;;;;;;;;5003007;28;89900;-49
2023/03/26 04:17:46;;;;;;;2.20;1.00;;;;;;;;;;5003501;28;87061;-49
2023/03/26 04:20:14;;;;;;;3.97;1.00;;;;;;;;;;5003375;28;86910;-50
2023/03/26 04:22:43;;;;;;;2.83;1.13;;;;;;;;;;5002562;28;88187;-49
2023/03/26 04:25:12;;;;;;;2.13;0.83;;;;;;;;;;5002790;28;86939;-49
2023/03/26 04:27:42;;;;;;;1.60;1.13;;;;;;;;;;5003144;28;87107;-49
2023/03/26 04:30:13;;;;;;;4.53;1.10;;;;;;;;;;5002589;28;86259;-49
2023/03/26 04:32:43;;;;;;;0.70;0.70;;;;;;;;;;5003473;28;89231;-49
2023/03/26 04:35:12;;;;;;;0.63;0.63;;;;;;;;;;5002618;28;87813;-49
2023/03/26 04:37:41;;;;;;;3.20;1.00;;;;;;;;;;5002534;28;87836;-49
2023/03/26 04:40:10;;;;;;;1.77;0.77;;;;;;;;;;5002069;28;87214;-49
2023/03/26 04:42:40;;;;;;;1.00;0.83;;;;;;;;;;5003017;28;89244;-49
2023/03/26 04:45:10;;;;;;;1.60;0.83;;;;;;;;;;5002866;28;88781;-49
2023/03/26 04:47:38;;;;;;;7.30;1.70;;;;;;;;;;5002777;28;87004;-49
2023/03/26 04:50:09;;;;;;;4.33;0.73;;;;;;;;;;5002387;28;87096;-49
2023/03/26 04:52:37;;;;;;;3.00;0.90;;;;;;;;;;5002757;28;88163;-49
2023/03/26 04:55:06;;;;;;;2.23;0.63;;;;;;;;;;5002717;28;87492;-49
2023/03/26 04:57:35;;;;;;;4.40;1.33;;;;;;;;;;5002628;28;86874;-49
2023/03/26 05:00:07;;;;;;;2.13;0.70;;;;;;;;;;5001956;28;87028;-48
2023/03/26 05:02:38;;;;;;;4.37;1.30;;;;;;;;;;5001947;28;89110;-49
2023/03/26 05:05:09;;;;;;;3.60;1.10;;;;;;;;;;5001626;28;89776;-49
2023/03/26 05:07:37;;;;;;;4.57;1.27;;;;;;;;;;5001593;28;87025;-49
2023/03/26 05:10:06;;;;;;;2.07;0.90;;;;;;;;;;4993898;28;87018;-49
2023/03/26 05:12:34;;;;;;;3.83;0.80;;;;;;;;;;5002320;28;89074;-49
2023/03/26 05:15:02;;;;;;;2.97;0.97;;;;;;;;;;5002104;28;87870;-49
2023/03/26 05:17:33;;;;;;;1.50;1.33;;;;;;;;;;5002853;28;87154;-49
2023/03/26 05:20:03;;;;;;;1.10;1.00;;;;;;;;;;5002456;28;86404;-49
2023/03/26 05:22:32;;;;;;;2.37;1.27;;;;;;;;;;5002179;28;89190;-49
2023/03/26 05:25:03;;;;;;;2.67;1.40;;;;;;;;;;5001694;28;89009;-49
2023/03/26 05:27:32;;;;;;;4.63;1.37;;;;;;;;;;5002248;28;87990;-49
2023/03/26 05:30:01;;;;;;;5.93;1.53;;;;;;;;;;5002201;28;87195;-49
2023/03/26 05:32:29;;;;;;;0.80;0.70;;;;;;;;;;5002230;28;89293;-49
2023/03/26 05:34:58;;;;;;;5.00;1.17;;;;;;;;;;5001673;28;88792;-49
2023/03/26 05:37:26;;;;;;;4.57;1.33;;;;;;;;;;5002381;28;87030;-49
2023/03/26 05:39:56;;;;;;;6.53;1.73;;;;;;;;;;5002141;28;86958;-49
2023/03/26 05:42:24;;;;;;;1.23;0.87;;;;;;;;;;5001949;28;86963;-49
2023/03/26 05:44:53;;;;;;;6.83;1.60;;;;;;;;;;5001535;28;88847;-49
2023/03/26 05:47:21;;;;;;;2.43;1.00;;;;;;;;;;5002589;28;86846;-49
2023/03/26 05:49:50;;;;;;;2.00;1.53;;;;;;;;;;5002063;28;87016;-49
2023/03/26 05:52:18;;;;;;;2.20;0.70;;;;;;;;;;5001522;28;88969;-49
2023/03/26 05:54:46;;;;;;;2.10;1.20;;;;;;;;;;5001554;28;88799;-49
2023/03/26 05:57:17;;;;;;;0.63;0.63;;;;;;;;;;5002398;28;86987;-49
2023/03/26 05:59:45;;;;;;;6.97;1.30;;;;;;;;;;5001954;28;87012;-49
2023/03/26 06:02:14;;;;;;;1.37;0.57;;;;;;;;;;5001317;28;86984;-49
2023/03/26 06:04:44;;;;;;;6.57;1.80;;;;;;;;;;5001171;28;87773;-49
2023/03/26 06:07:13;;;;;;;7.07;2.20;;;;;;;;;;5000798;28;87018;-49
2023/03/26 06:09:41;;;;;;;1.90;0.90;;;;;;;;;;5002186;28;86297;-49
2023/03/26 06:12:10;;;;;;;1.80;1.03;;;;;;;;;;5002141;28;88854;-49
2023/03/26 06:14:41;;;;;;;1.77;1.03;;;;;;;;;;5001917;28;89002;-49
2023/03/26 06:17:10;;;;;;;3.27;0.87;;;;;;;;;;5001572;28;88056;-49
2023/03/26 06:19:38;;;;;;;2.90;1.30;;;;;;;;;;5002221;28;86915;-49
2023/03/26 06:22:06;;;;;;;1.57;1.00;;;;;;;;;;5000780;28;89303;-49
2023/03/26 06:24:35;;;;;;;1.43;0.60;;;;;;;;;;5001119;28;87837;-49
2023/03/26 06:27:03;;;;;;;6.37;1.67;;;;;;;;;;5000962;28;87046;-49
2023/03/26 06:29:31;;;;;;;3.60;0.73;;;;;;;;;;5001579;28;86950;-49
2023/03/26 06:32:01;;;;;;;4.97;1.43;;;;;;;;;;5000801;28;89157;-50
2023/03/26 06:34:46;;;;;;;0.60;0.47;;;;;;;;;;5001098;28;88921;-49
2023/03/26 06:37:15;;;;;;;3.83;1.03;;;;;;;;;;5001042;28;86769;-49
2023/03/26 06:39:44;;;;;;;0.83;0.70;;;;;;;;;;5001231;28;87079;-49
2023/03/26 06:42:13;;;;;;;5.27;1.37;;;;;;;;;;4999957;28;89174;-49
2023/03/26 06:44:41;;;;;;;1.37;1.03;;;;;;;;;;5000949;28;89809;-50
2023/03/26 06:47:11;;;;;;;3.53;1.33;;;;;;;;;;5000935;28;86993;-49
2023/03/26 06:49:40;;;;;;;4.83;1.30;;;;;;;;;;5001577;28;86806;-49
2023/03/26 06:52:11;;;;;;;5.23;1.13;;;;;;;;;;5000548;28;88234;-49
2023/03/26 06:54:40;;;;;;;0.33;0.33;;;;;;;;;;5000905;28;87793;-49
2023/03/26 06:57:08;;;;;;;2.83;0.80;;;;;;;;;;5000972;28;87082;-49
2023/03/26 06:59:36;;;;;;;1.73;0.70;;;;;;;;;;5001287;28;86402;-49
2023/03/26 07:02:05;;;;;;;1.97;0.70;;;;;;;;;;5000043;28;89287;-50
2023/03/26 07:04:34;;;;;;;4.87;1.23;;;;;;;;;;5000402;28;86893;-49
2023/03/26 07:07:03;;;;;;;2.90;1.30;;;;;;;;;;5000497;28;87819;-50
2023/03/26 07:09:31;;;;;;;2.87;0.90;;;;;;;;;;4999237;28;87014;-49
2023/03/26 07:12:00;;;;;;;1.60;1.10;;;;;;;;;;5000067;28;87050;-49
2023/03/26 07:14:30;;;;;;;5.83;1.33;;;;;;;;;;5000576;28;88976;-49
2023/03/26 07:16:58;;;;;;;2.13;1.23;;;;;;;;;;5000883;28;87040;-49
2023/03/26 07:19:26;;;;;;;0.80;0.73;;;;;;;;;;5004607;28;87020;-50
2023/03/26 07:21:56;;;;;;;0.87;0.80;;;;;;;;;;5003950;28;89055;-49
2023/03/26 07:24:25;;;;;;;0.83;0.60;;;;;;;;;;5004684;28;87844;-49
2023/03/26 07:26:55;;;;;;;4.13;1.13;;;;;;;;;;5004302;28;86850;-49
2023/03/26 07:29:26;;;;;;;1.80;0.73;;;;;;;;;;5004136;28;87078;-49
2023/03/26 07:31:55;;;;;;;11.37;1.50;;;;;;;;;;5002497;28;89031;-49
2023/03/26 07:34:29;;;;;;;4.70;1.10;;;;;;;;;;5003214;28;89785;-49
2023/03/26 07:37:01;;;;;;;6.17;1.27;;;;;;;;;;5003127;28;87059;-49
2023/03/26 07:39:34;;;;;;;1.50;0.80;;;;;;;;;;5004050;28;86992;-49
2023/03/26 07:42:03;;;;;;;7.80;1.67;;;;;;;;;;4994655;28;87774;-49
2023/03/26 07:44:34;;;;;;;2.23;0.90;;;;;;;;;;5003966;28;87782;-50
2023/03/26 07:47:04;;;;;;;1.70;0.97;;;;;;;;;;5004157;28;86741;-49
2023/03/26 07:49:32;;;;;;;1.70;1.20;;;;;;;;;;5004463;28;86241;-49
2023/03/26 07:52:02;;;;;;;5.10;1.20;;;;;;;;;;5002831;28;89200;-49
2023/03/26 07:54:31;;;;;;;2.17;1.00;;;;;;;;;;5003345;28;88873;-49
2023/03/26 07:57:00;;;;;;;2.23;1.43;;;;;;;;;;5003234;28;87933;-49
2023/03/26 07:59:29;;;;;;;1.33;1.10;;;;;;;;;;5003166;28;87039;-49
2023/03/26 08:02:01;;;;;;;0.83;0.77;;;;;;;;;;5002693;28;89222;-49
2023/03/26 08:04:48;;;;;;;1.57;1.20;;;;;;;;;;5002914;28;87061;-49
2023/03/26 08:07:19;;;;;;;2.50;1.40;;;;;;;;;;5002619;28;87392;-49
2023/03/26 08:09:50;;;;;;;1.80;1.20;;;;;;;;;;5003129;28;87070;-49
2023/03/26 08:12:19;;;;;;;3.10;1.27;;;;;;;;;;5003321;28;89119;-49
2023/03/26 08:14:49;;;;;;;2.33;0.80;;;;;;;;;;5003929;28;88729;-49
2023/03/26 08:17:18;;;;;;;1.50;1.40;;;;;;;;;;5003009;28;86992;-49
2023/03/26 08:19:52;;;;;;;2.03;1.13;;;;;;;;;;5002771;28;87498;-49
2023/03/26 08:22:26;;;;;;;1.30;1.20;;;;;;;;;;5001133;28;89074;-49
2023/03/26 08:25:01;;;;;;;1.53;1.10;;;;;;;;;;4983509;28;88986;-49
2023/03/26 08:27:31;;;;;;;1.13;1.00;;;;;;;;;;5003290;28;87111;-48
2023/03/26 08:30:01;;;;;;;4.30;1.43;;;;;;;;;;5002504;28;86974;-49
2023/03/26 08:32:30;;;;;;;1.93;1.33;;;;;;;;;;5003211;28;87006;-49
2023/03/26 08:34:58;;;;;;;2.63;2.17;;;;;;;;;;5002703;28;88943;-49
2023/03/26 08:37:28;;;;;;;1.90;1.13;;;;;;;;;;5002763;28;87087;-49
2023/03/26 08:39:57;;;;;;;6.80;1.40;;;;;;;;;;5003465;28;86408;-49
2023/03/26 08:42:46;;;;;;;1.73;0.87;;;;;;;;;;5002549;28;89278;-49
2023/03/26 08:45:18;;;;;;;1.00;0.87;;;;;;;;;;4992524;28;88875;-49
2023/03/26 08:47:55;;;;;;;4.30;1.00;;;;;;;;;;5002359;28;87941;-49
2023/03/26 08:50:42;;;;;;;0.80;0.80;;;;;;;;;;5002800;28;87193;-49
2023/03/26 08:53:16;;;;;;;1.90;0.80;;;;;;;;;;4987479;28;89193;-49
2023/03/26 08:55:46;;;;;;;1.73;1.40;;;;;;;;;;5001976;28;87747;-49
2023/03/26 08:58:23;;;;;;;1.20;0.93;;;;;;;;;;5003116;28;86913;-49
2023/03/26 09:01:10;;;;;;;2.83;1.40;;;;;;;;;;5001253;28;88006;-49
2023/03/26 09:03:48;;;;;;;3.90;0.70;;;;;;;;;;4982868;28;89204;-49
2023/03/26 09:06:37;;;;;;;1.13;0.83;;;;;;;;;;4991820;28;88962;-49
2023/03/26 09:09:14;;;;;;;0.97;0.80;;;;;;;;;;5002097;28;87075;-49
2023/03/26 09:12:05;;;;;;;2.50;1.20;;;;;;;;;;5002870;28;87000;-49
2023/03/26 09:14:40;;;;;;;2.23;1.20;;;;;;;;;;5002225;28;88862;-49
2023/03/26 09:17:27;;;;;;;1.33;1.10;;;;;;;;;;5001528;28;89792;-49
2023/03/26 09:20:11;;;;;;;1.10;1.00;;;;;;;;;;4983163;28;86960;-49
2023/03/26 09:22:49;;;;;;;2.00;1.10;;;;;;;;;;4998784;28;87070;-49
2023/03/26 09:25:27;;;;;;;1.30;0.97;;;;;;;;;;5002264;28;88029;-48
2023/03/26 09:28:04;;;;;;;2.07;1.37;;;;;;;;;;5001812;28;87976;-49
2023/03/26 09:30:46;;;;;;;1.37;0.73;;;;;;;;;;5002061;28;86836;-49
2023/03/26 09:33:51;;;;;;;1.10;0.70;;;;;;;;;;5002331;28;86113;-49
2023/03/26 09:36:20;;;;;;;0.77;0.77;;;;;;;;;;5001094;28;89080;-49
2023/03/26 09:38:52;;;;;;;1.00;0.70;;;;;;;;;;5001534;28;87783;-49
2023/03/26 09:41:26;;;;;;;0.93;0.87;;;;;;;;;;5000385;28;88067;-48
2023/03/26 09:44:27;;;;;;;1.47;1.10;;;;;;;;;;5002347;28;87015;-48
2023/03/26 09:47:00;;;;;;;0.67;0.67;;;;;;;;;;4994581;28;88111;-49
2023/03/26 09:49:31;;;;;;;1.03;0.90;;;;;;;;;;5001262;28;88108;-49
2023/03/26 09:52:13;;;;;;;1.50;0.70;;;;;;;;;;5002177;28;86970;-49
2023/03/26 09:55:02;;;;;;;0.80;0.70;;;;;;;;;;5002286;28;86869;-48
2023/03/26 09:57:38;;;;;;;0.77;0.70;;;;;;;;;;4977562;28;88286;-49
2023/03/26 10:00:09;;;;;;;1.13;0.50;;;;;;;;;;4981688;28;87883;-49
2023/03/26 10:02:43;;;;;;;1.43;0.70;;;;;;;;;;4981801;28;86864;-49
2023/03/26 10:05:23;;;;;;;0.80;0.40;;;;;;;;;;4981578;28;86978;-48
2023/03/26 10:07:54;;;;;;;1.17;0.50;;;;;;;;;;4988458;28;88077;-49
2023/03/26 10:10:26;;;;;;;1.00;0.60;;;;;;;;;;5000829;28;88786;-49
2023/03/26 10:12:57;;;;;;;1.30;0.60;;;;;;;;;;5001637;28;86887;-49
2023/03/26 10:15:45;;;;;;;0.80;0.80;;;;;;;;;;4982253;28;87150;-49
2023/03/26 10:18:16;;;;;;;1.20;1.07;;;;;;;;;;4979531;28;89182;-49
2023/03/26 10:20:58;;;;;;;0.83;0.40;;;;;;;;;;4980577;28;87622;-49
2023/03/26 10:23:55;;;;;;;1.50;0.87;;;;;;;;;;4993329;28;86986;-49
2023/03/26 10:26:31;;;;;;;2.50;0.53;;;;;;;;;;4954442;28;86396;-49
2023/03/26 10:29:07;;;;;;;2.77;0.80;;;;;;;;;;5001791;28;88881;-49
2023/03/26 10:31:37;;;;;;;0.70;0.70;;;;;;;;;;4997596;28;88037;-49
2023/03/26 10:34:10;;;;;;;0.53;0.50;;;;;;;;;;5000730;28;87913;-49
2023/03/26 10:36:58;;;;;;;1.33;0.80;;;;;;;;;;5001305;28;86872;-49
2023/03/26 10:39:30;;;;;;;2.60;1.00;;;;;;;;;;5000098;28;88222;-49
2023/03/26 10:42:20;;;;;;;0.87;0.87;;;;;;;;;;4990835;28;87092;-49
2023/03/26 10:45:08;;;;;;;2.20;0.87;;;;;;;;;;4999261;28;87049;-49
2023/03/26 10:47:41;;;;;;;0.90;0.80;;;;;;;;;;5000913;28;87065;-48
2023/03/26 10:50:19;;;;;;;0.67;0.67;;;;;;;;;;5001832;28;87527;-48
2023/03/26 10:52:53;;;;;;;6.53;2.00;;;;;;;;;;5002258;28;87789;-49
2023/03/26 10:55:22;;;;;;;6.33;2.10;;;;;;;;;;5004959;28;87031;-49
2023/03/26 10:57:53;;;;;;;11.27;2.70;;;;;;;;;;5004103;28;87031;-49
2023/03/26 11:00:24;;;;;;;21.47;4.10;;;;;;;;;;5001588;28;88832;-49
2023/03/26 11:03:03;;;;;;;12.13;3.50;;;;;;;;;;5001169;28;89003;-48
2023/03/26 11:05:40;;;;;;;12.17;3.70;;;;;;;;;;4992490;28;87014;-49
2023/03/26 11:08:09;;;;;;;13.97;3.10;;;;;;;;;;4999641;28;87042;-49
2023/03/26 11:10:41;;;;;;;12.83;3.30;;;;;;;;;;5002820;28;87495;-49
2023/03/26 11:13:13;;;;;;;8.23;3.10;;;;;;;;;;5002695;28;88694;-49
2023/03/26 11:15:43;;;;;;;8.20;2.10;;;;;;;;;;5003433;28;86977;-49
2023/03/26 11:18:13;;;;;;;9.03;2.53;;;;;;;;;;5000255;28;86304;-49
2023/03/26 11:20:42;;;;;;;4.97;2.87;;;;;;;;;;5001463;28;89194;-49
2023/03/26 11:23:15;;;;;;;21.07;5.47;;;;;;;;;;4999488;28;87798;-48
2023/03/26 11:25:52;;;;;;;5.93;3.50;;;;;;;;;;4996599;28;88121;-48
2023/03/26 11:28:24;;;;;;;4.93;2.50;;;;;;;;;;5001016;28;87130;-48
2023/03/26 11:30:55;;;;;;;5.17;1.60;;;;;;;;;;5001923;28;90456;-48
2023/03/26 11:33:25;;;;;;;8.83;1.67;;;;;;;;;;5002324;28;89063;-48
2023/03/26 11:36:01;;;;;;;6.00;2.03;;;;;;;;;;5002954;28;87008;-48
2023/03/26 11:38:31;;;;;;;4.20;1.20;;;;;;;;;;5002668;28;87029;-48
2023/03/26 11:41:00;;;;;;;3.10;1.10;;;;;;;;;;5003531;28;89130;-49
2023/03/26 11:43:30;;;;;;;1.07;0.60;;;;;;;;;;5003694;28;88855;-49
2023/03/26 11:45:59;;;;;;;1.13;0.90;;;;;;;;;;5002839;28;87559;-49
2023/03/26 11:48:29;;;;;;;2.90;1.10;;;;;;;;;;5001014;28;87150;-49
2023/03/26 11:50:58;;;;;;;3.90;0.67;;;;;;;;;;5003211;28;90184;-49
2023/03/26 11:53:28;;;;;;;5.77;1.73;;;;;;;;;;5003670;28;88893;-49
2023/03/26 11:55:58;;;;;;;3.00;0.60;;;;;;;;;;5004151;28;87023;-49
2023/03/26 11:58:29;;;;;;;1.60;0.60;;;;;;;;;;5004350;28;86888;-49
2023/03/26 12:00:59;;;;;;;0.80;0.73;;;;;;;;;;5003226;28;89293;-49
2023/03/26 12:03:29;;;;;;;0.80;0.70;;;;;;;;;;5003588;28;87863;-49
2023/03/26 12:05:58;;;;;;;2.07;0.73;;;;;;;;;;5003003;28;86782;-49
2023/03/26 12:08:29;;;;;;;2.87;1.07;;;;;;;;;;5003992;28;86296;-49
2023/03/26 12:11:01;;;;;;;1.33;0.47;;;;;;;;;;5003351;28;88827;-49
2023/03/26 12:13:30;;;;;;;0.70;0.70;;;;;;;;;;5003811;28;87891;-49
2023/03/26 12:16:00;;;;;;;0.87;0.80;;;;;;;;;;5003369;28;87735;-49
2023/03/26 12:18:28;;;;;;;1.27;0.60;;;;;;;;;;5003811;28;87082;-49
2023/03/26 12:21:03;;;;;;;1.43;0.60;;;;;;;;;;5003116;28;88284;-49
2023/03/26 12:23:36;;;;;;;2.60;0.70;;;;;;;;;;5003339;28;87994;-49
2023/03/26 12:26:06;;;;;;;0.30;0.30;;;;;;;;;;5003801;28;86970;-49
2023/03/26 12:28:34;;;;;;;4.07;0.63;;;;;;;;;;5003198;28;87035;-49
2023/03/26 12:31:06;;;;;;;2.63;0.70;;;;;;;;;;5002686;28;88131;-49
2023/03/26 12:33:37;;;;;;;1.33;0.87;;;;;;;;;;5003821;28;88948;-49
2023/03/26 12:36:17;;;;;;;3.10;0.40;;;;;;;;;;5003285;28;87990;-49
2023/03/26 12:38:45;;;;;;;0.50;0.50;;;;;;;;;;5003545;28;86932;-49
2023/03/26 12:41:34;;;;;;;6.23;0.67;;;;;;;;;;5002177;28;88687;-49
2023/03/26 12:44:23;;;;;;;0.60;0.50;;;;;;;;;;5002478;28;88416;-49
2023/03/26 12:47:16;;;;;;;2.50;0.57;;;;;;;;;;5003047;28;86981;-49
2023/03/26 12:50:05;;;;;;;1.93;0.70;;;;;;;;;;5002180;28;86908;-49
2023/03/26 12:52:38;;;;;;;3.17;0.67;;;;;;;;;;5002724;28;89095;-49
2023/03/26 12:55:09;;;;;;;1.67;0.60;;;;;;;;;;5003042;28;87931;-49
2023/03/26 12:57:41;;;;;;;0.60;0.60;;;;;;;;;;5003085;28;87029;-49
2023/03/26 13:00:22;;;;;;;1.80;0.80;;;;;;;;;;5003109;28;86243;-49
2023/03/26 13:02:57;;;;;;;1.23;0.77;;;;;;;;;;5003185;28;89036;-49
2023/03/26 13:05:33;;;;;;;2.53;0.80;;;;;;;;;;5002646;28;88788;-49
2023/03/26 13:08:06;;;;;;;2.63;0.80;;;;;;;;;;5002390;28;87704;-49
2023/03/26 13:10:40;;;;;;;3.60;0.50;;;;;;;;;;5002042;28;86873;-49
2023/03/26 13:13:12;;;;;;;1.23;0.87;;;;;;;;;;5002075;28;87052;-49
2023/03/26 13:15:41;;;;;;;1.63;0.73;;;;;;;;;;5001952;28;88744;-49
2023/03/26 13:18:15;;;;;;;9.20;1.23;;;;;;;;;;4993605;28;87040;-49
2023/03/26 13:20:50;;;;;;;1.67;0.73;;;;;;;;;;4987002;28;87179;-49
2023/03/26 13:23:21;;;;;;;2.93;1.23;;;;;;;;;;4998539;28;88274;-49
2023/03/26 13:25:52;;;;;;;2.27;0.30;;;;;;;;;;5000302;28;89128;-49
2023/03/26 13:28:23;;;;;;;0.67;0.47;;;;;;;;;;5001130;28;87023;-49
2023/03/26 13:30:53;;;;;;;2.07;0.77;;;;;;;;;;5001694;28;87013;-49
2023/03/26 13:33:29;;;;;;;4.27;1.03;;;;;;;;;;5001450;28;90220;-49
2023/03/26 13:36:00;;;;;;;9.63;0.63;;;;;;;;;;5001823;28;88390;-49
2023/03/26 13:38:53;;;;;;;1.93;0.63;;;;;;;;;;5002668;28;86944;-49
2023/03/26 13:41:30;;;;;;;1.60;0.70;;;;;;;;;;5000913;28;87082;-49
2023/03/26 13:44:01;;;;;;;2.90;1.13;;;;;;;;;;4999922;28;88224;-49
2023/03/26 13:46:31;;;;;;;1.30;0.33;;;;;;;;;;4999409;28;87071;-49
2023/03/26 13:49:02;;;;;;;0.50;0.50;;;;;;;;;;5000207;28;87833;-49
2023/03/26 13:51:31;;;;;;;1.07;0.60;;;;;;;;;;5002163;28;86396;-49
2023/03/26 13:54:01;;;;;;;4.47;0.67;;;;;;;;;;4995886;28;88140;-49
2023/03/26 13:56:30;;;;;;;0.87;0.60;;;;;;;;;;4999864;28;88004;-49
2023/03/26 13:59:00;;;;;;;0.60;0.60;;;;;;;;;;5000060;28;87671;-49
2023/03/26 14:01:33;;;;;;;1.23;0.80;;;;;;;;;;4999300;28;87066;-49
2023/03/26 14:04:06;;;;;;;4.23;1.17;;;;;;;;;;4999896;28;87922;-49
2023/03/26 14:06:40;;;;;;;5.17;0.90;;;;;;;;;;4995190;28;88821;-49
2023/03/26 14:09:11;;;;;;;0.90;0.73;;;;;;;;;;4999744;28;86973;-49
2023/03/26 14:11:43;;;;;;;0.30;0.30;;;;;;;;;;4999520;28;87150;-49
2023/03/26 14:14:12;;;;;;;3.37;0.70;;;;;;;;;;4999487;28;88294;-49
2023/03/26 14:16:41;;;;;;;1.27;0.63;;;;;;;;;;5000386;28;88756;-49
2023/03/26 14:19:15;;;;;;;3.40;1.23;;;;;;;;;;4999974;28;87224;-49
2023/03/26 14:21:54;;;;;;;1.40;0.87;;;;;;;;;;4999702;28;87650;-49
2023/03/26 14:24:32;;;;;;;3.33;0.90;;;;;;;;;;4999102;28;89234;-49
2023/03/26 14:27:21;;;;;;;0.53;0.50;;;;;;;;;;4999022;28;89617;-49
2023/03/26 14:29:53;;;;;;;2.40;0.73;;;;;;;;;;4997821;28;87377;-49
2023/03/26 14:32:31;;;;;;;2.43;0.83;;;;;;;;;;5003290;28;87086;-49
2023/03/26 14:35:17;;;;;;;1.37;0.80;;;;;;;;;;5002361;28;88242;-49
2023/03/26 14:37:49;;;;;;;1.07;0.83;;;;;;;;;;5002897;28;87085;-50
2023/03/26 14:40:35;;;;;;;3.03;1.00;;;;;;;;;;5003387;28;87094;-48
2023/03/26 14:43:19;;;;;;;1.40;0.70;;;;;;;;;;4999562;28;86360;-48
2023/03/26 14:45:53;;;;;;;0.87;0.87;;;;;;;;;;5001086;28;87001;-49
2023/03/26 14:48:42;;;;;;;2.17;1.20;;;;;;;;;;5002901;28;87970;-48
2023/03/26 14:51:15;;;;;;;1.07;0.73;;;;;;;;;;4961610;28;88435;-48
2023/03/26 14:53:44;;;;;;;0.67;0.60;;;;;;;;;;5002686;28;87069;-48
2023/03/26 14:56:20;;;;;;;1.90;1.00;;;;;;;;;;5001292;28;89112;-48
2023/03/26 14:59:03;;;;;;;1.03;0.70;;;;;;;;;;4999236;28;88960;-49
2023/03/26 15:01:38;;;;;;;2.50;1.20;;;;;;;;;;5002513;28;87140;-49
2023/03/26 15:04:13;;;;;;;2.70;1.50;;;;;;;;;;5002326;28;86975;-49
2023/03/26 15:06:52;;;;;;;1.93;0.97;;;;;;;;;;5002376;28;89139;-49
2023/03/26 15:09:45;;;;;;;2.20;0.97;;;;;;;;;;5002187;28;86279;-49
2023/03/26 15:12:15;;;;;;;1.10;0.83;;;;;;;;;;4914179;28;87252;-49